Time;durP1;ratioP1;P1;durP2;ratioP2;P2;SDS_P1;SDS_P2;PMS_P1;PMS_P2;Temp;Humidity;BMP_temperature;BMP_pressure;BME280_temperature;BME280_humidity;BME280_pressure;Samples;Min_cycle;Max_cycle;Signal;HPM_P1;HPM_P2
2021/06/13 18:17:27;;;;;;;;;;;23.00;50.00;;;;;;5107761;27;20003;-69
2021/06/13 18:19:54;;;;;;;;;;;22.30;53.10;;;;;;5086978;28;20331;-70
2021/06/13 18:22:20;;;;;;;;;;;21.90;54.10;;;;;;5088046;28;20303;-70
2021/06/13 18:24:47;;;;;;;;;;;21.70;54.90;;;;;;5089539;28;20015;-68
2021/06/13 18:27:13;;;;;;;;;;;21.60;55.00;;;;;;5088830;28;19928;-68
2021/06/13 18:29:40;;;;;;;;;;;21.50;56.40;;;;;;5089753;28;19929;-67
2021/06/13 18:32:07;;;;;;;;;;;21.50;55.60;;;;;;5088005;28;19935;-68
2021/06/13 18:34:35;;;;;;;;;;;21.40;55.00;;;;;;5093433;28;19924;-68
2021/06/13 18:37:01;;;;;;;;;;;21.40;55.30;;;;;;5092697;28;19928;-68
2021/06/13 18:39:28;;;;;;;;;;;21.40;55.20;;;;;;5092586;28;20621;-67
2021/06/13 18:41:54;;;;;;;;;;;21.40;55.90;;;;;;5089432;28;19932;-67
2021/06/13 18:44:21;;;;;;;;;;;21.40;56.40;;;;;;5089606;28;19928;-66
2021/06/13 18:46:48;;;;;;;;;;;21.30;56.30;;;;;;5085867;28;19935;-67
2021/06/13 18:49:14;;;;;;;;;;;21.30;56.30;;;;;;5090566;28;19928;-68
2021/06/13 18:51:42;;;;;;;;;;;21.30;56.30;;;;;;5086141;28;19935;-67
2021/06/13 18:54:09;;;;;;;;;;;21.30;56.30;;;;;;5084078;28;20285;-67
2021/06/13 18:56:35;;;;;;;;;;;21.30;56.30;;;;;;5086036;28;19928;-67
2021/06/13 18:59:02;;;;;;;;;;;21.30;56.30;;;;;;5087183;28;19928;-67
2021/06/13 19:01:28;;;;;;;;;;;21.30;56.30;;;;;;5085906;28;20445;-67
2021/06/13 19:03:55;;;;;;;;;;;21.30;56.30;;;;;;5083707;28;19935;-68
2021/06/13 19:06:21;;;;;;;;;;;21.30;56.30;;;;;;5087942;28;19928;-67
2021/06/13 19:08:49;;;;;;;;;;;21.30;56.30;;;;;;5086545;28;19932;-66
2021/06/13 19:11:16;;;;;;;;;;;21.30;56.30;;;;;;5089891;28;19929;-67
2021/06/13 19:13:42;;;;;;;;;;;21.20;56.20;;;;;;5083245;28;20567;-67
2021/06/13 19:16:10;;;;;;;;;;;21.20;56.20;;;;;;5086683;28;19959;-67
2021/06/13 19:18:37;;;;;;;;;;;21.20;56.20;;;;;;5085023;28;20914;-67
2021/06/13 19:21:03;;;;;;;;;;;21.20;56.20;;;;;;5085145;28;20418;-66
2021/06/13 19:23:31;;;;;;;;;;;21.20;56.20;;;;;;5086246;28;19927;-66
2021/06/13 19:26:02;;;;;;;;;;;21.10;56.10;;;;;;5082647;28;19928;-67
2021/06/13 19:28:29;;;;;;;;;;;21.10;56.10;;;;;;5073696;28;19928;-67
2021/06/13 19:30:55;;;;;;;;;;;21.10;56.10;;;;;;5073083;28;20070;-66
2021/06/13 19:33:22;;;;;;;;;;;21.10;56.10;;;;;;5073948;28;20401;-67
2021/06/13 19:35:48;;;;;;;;;;;21.10;56.10;;;;;;5074495;28;19928;-66
2021/06/13 19:38:15;;;;;;;;;;;21.10;56.10;;;;;;5073200;28;19932;-66
2021/06/13 19:40:41;;;;;;;;;;;21.10;56.10;;;;;;5072393;28;20001;-66
2021/06/13 19:43:09;;;;;;;;;;;21.10;56.10;;;;;;5072726;28;19932;-67
2021/06/13 19:45:36;;;;;;;;;;;21.10;56.10;;;;;;5071734;28;20047;-69
2021/06/13 19:48:03;;;;;;;;;;;21.10;56.10;;;;;;5070240;28;19950;-67
2021/06/13 19:50:30;;;;;;;;;;;21.00;56.00;;;;;;5073415;28;19957;-67
2021/06/13 19:52:57;;;;;;;;;;;21.10;56.10;;;;;;5073132;28;20768;-67
2021/06/13 19:55:24;;;;;;;;;;;21.00;56.00;;;;;;5073757;28;19928;-67
2021/06/13 19:57:50;;;;;;;;;;;21.00;56.00;;;;;;5073504;28;19928;-67
2021/06/13 20:00:18;;;;;;;;;;;21.00;56.00;;;;;;5071470;28;19928;-68
2021/06/13 20:02:45;;;;;;;;;;;21.00;56.10;;;;;;5074773;28;19928;-68
2021/06/13 20:05:12;;;;;;;;;;;21.00;56.00;;;;;;5070122;28;20411;-67
2021/06/13 20:07:38;;;;;;;;;;;21.00;56.00;;;;;;5070737;28;19951;-68
2021/06/13 20:10:05;;;;;;;;;;;21.00;56.00;;;;;;5072255;28;19932;-68
2021/06/13 20:12:31;;;;;;;;;;;21.00;56.20;;;;;;5072733;28;19928;-69
2021/06/13 20:14:58;;;;;;;;;;;21.00;56.00;;;;;;5071203;28;19928;-68
2021/06/13 20:17:26;;;;;;;;;;;21.00;56.00;;;;;;5070705;28;19928;-68
2021/06/13 20:19:53;;;;;;;;;;;21.00;56.00;;;;;;5074452;28;19950;-68
2021/06/13 20:22:19;;;;;;;;;;;21.00;56.00;;;;;;5071176;28;19929;-68
2021/06/13 20:24:46;;;;;;;;;;;21.00;56.00;;;;;;5072296;28;20411;-67
2021/06/13 20:27:13;;;;;;;;;;;21.00;56.20;;;;;;5071610;28;19936;-68
2021/06/13 20:29:39;;;;;;;;;;;20.90;55.90;;;;;;5071784;28;20604;-67
2021/06/13 20:32:06;;;;;;;;;;;20.90;55.90;;;;;;5072349;28;19935;-68
2021/06/13 20:34:34;;;;;;;;;;;20.90;55.90;;;;;;5071143;28;19928;-68
2021/06/13 20:37:01;;;;;;;;;;;20.90;55.90;;;;;;5071301;28;20485;-67
2021/06/13 20:39:27;;;;;;;;;;;20.90;55.90;;;;;;5068301;28;19940;-67
2021/06/13 20:41:54;;;;;;;;;;;20.90;55.90;;;;;;5071138;28;20971;-68
2021/06/13 20:44:20;;;;;;;;;;;20.80;55.80;;;;;;5069077;28;19932;-68
2021/06/13 20:46:47;;;;;;;;;;;20.80;55.90;;;;;;5072229;28;20757;-68
2021/06/13 20:49:13;;;;;;;;;;;20.80;55.90;;;;;;5065872;28;20309;-68
2021/06/13 20:51:41;;;;;;;;;;;20.80;55.80;;;;;;5066160;28;19936;-68
2021/06/13 20:54:08;;;;;;;;;;;20.80;55.80;;;;;;5068468;28;19977;-69
2021/06/13 20:56:34;;;;;;;;;;;20.80;55.80;;;;;;5065853;28;19935;-67
2021/06/13 20:59:01;;;;;;;;;;;20.70;55.70;;;;;;5058656;28;20646;-68
2021/06/13 21:01:28;;;;;;;;;;;20.70;55.70;;;;;;5066582;28;19936;-68
2021/06/13 21:03:54;;;;;;;;;;;20.70;55.70;;;;;;5059759;28;20403;-67
2021/06/13 21:06:21;;;;;;;;;;;20.70;55.70;;;;;;5063008;28;19932;-68
2021/06/13 21:08:49;;;;;;;;;;;20.70;55.70;;;;;;5063390;28;19932;-68
2021/06/13 21:11:15;;;;;;;;;;;20.70;55.70;;;;;;5063678;28;19943;-69
2021/06/13 21:13:42;;;;;;;;;;;20.70;55.80;;;;;;5061287;28;19928;-68
2021/06/13 21:16:09;;;;;;;;;;;20.60;55.70;;;;;;5063092;28;19936;-67
2021/06/13 21:18:36;;;;;;;;;;;20.60;55.70;;;;;;5061807;28;19928;-68
2021/06/13 21:21:04;;;;;;;;;;;20.60;55.70;;;;;;5062860;28;19936;-68
2021/06/13 21:23:30;;;;;;;;;;;20.60;56.10;;;;;;5062729;28;20002;-68
2021/06/13 21:25:59;;;;;;;;;;;20.60;56.20;;;;;;5060647;28;20014;-68
2021/06/13 21:28:25;;;;;;;;;;;20.60;56.10;;;;;;5061664;28;19936;-67
2021/06/13 21:30:52;;;;;;;;;;;20.60;55.90;;;;;;5074274;28;20686;-67
2021/06/13 21:33:19;;;;;;;;;;;20.60;56.00;;;;;;5075791;28;19925;-68
2021/06/13 21:35:45;;;;;;;;;;;20.60;55.80;;;;;;5070539;28;20638;-68
2021/06/13 21:38:12;;;;;;;;;;;20.60;56.10;;;;;;5071808;28;19935;-67
2021/06/13 21:40:39;;;;;;;;;;;20.50;56.20;;;;;;5071075;28;19932;-68
2021/06/13 21:43:07;;;;;;;;;;;20.50;56.30;;;;;;5071912;28;19928;-69
2021/06/13 21:45:33;;;;;;;;;;;20.50;56.40;;;;;;5074099;28;19928;-68
2021/06/13 21:48:00;;;;;;;;;;;20.50;56.40;;;;;;5070004;28;20313;-67
2021/06/13 21:50:26;;;;;;;;;;;20.50;56.40;;;;;;5070747;28;19937;-68
2021/06/13 21:52:53;;;;;;;;;;;20.50;56.50;;;;;;5072646;28;19928;-68
2021/06/13 21:55:20;;;;;;;;;;;20.50;56.60;;;;;;5070064;28;19954;-68
2021/06/13 21:57:46;;;;;;;;;;;20.40;56.50;;;;;;5073022;28;19971;-67
2021/06/13 22:00:15;;;;;;;;;;;20.40;56.60;;;;;;5072238;28;19955;-68
2021/06/13 22:02:41;;;;;;;;;;;20.40;56.50;;;;;;5073526;28;19928;-69
2021/06/13 22:05:08;;;;;;;;;;;20.40;56.60;;;;;;5069009;28;19935;-69
2021/06/13 22:07:35;;;;;;;;;;;20.40;56.60;;;;;;5070814;28;19935;-68
2021/06/13 22:10:01;;;;;;;;;;;20.40;56.60;;;;;;5075669;28;19935;-69
2021/06/13 22:12:28;;;;;;;;;;;20.40;56.60;;;;;;5076813;28;19958;-67
2021/06/13 22:14:54;;;;;;;;;;;20.40;56.60;;;;;;5075927;28;19932;-67
2021/06/13 22:17:22;;;;;;;;;;;20.30;56.60;;;;;;5069052;28;19928;-68
2021/06/13 22:19:49;;;;;;;;;;;20.30;56.60;;;;;;5075263;28;19936;-68
2021/06/13 22:22:15;;;;;;;;;;;20.30;56.70;;;;;;5072716;28;19936;-68
2021/06/13 22:24:42;;;;;;;;;;;20.30;56.70;;;;;;5071299;28;19932;-68
2021/06/13 22:27:09;;;;;;;;;;;20.30;56.80;;;;;;5072031;28;20839;-67
2021/06/13 22:29:36;;;;;;;;;;;20.30;56.90;;;;;;5071685;28;20483;-67
2021/06/13 22:32:02;;;;;;;;;;;20.30;56.80;;;;;;5072082;28;19935;-68
2021/06/13 22:34:30;;;;;;;;;;;20.30;56.90;;;;;;5070180;28;19928;-67
2021/06/13 22:36:57;;;;;;;;;;;20.20;56.90;;;;;;5072234;28;20387;-68
2021/06/13 22:39:23;;;;;;;;;;;20.20;56.90;;;;;;5072859;28;19928;-68
2021/06/13 22:41:50;;;;;;;;;;;20.20;56.90;;;;;;5071876;28;19979;-67
2021/06/13 22:44:19;;;;;;;;;;;20.20;57.10;;;;;;5070423;28;19928;-68
2021/06/13 22:46:45;;;;;;;;;;;20.10;57.10;;;;;;5072932;28;19963;-68
